createdAt,value
2018-02-21T00:02:06.333Z,69.50
2018-02-21T00:04:34.775Z,69.50
2018-02-21T00:07:03.905Z,70.00
2018-02-21T00:09:32.273Z,69.30
2018-02-21T00:12:00.678Z,69.00
2018-02-21T00:14:29.054Z,69.00
2018-02-21T00:16:57.462Z,69.30
2018-02-21T00:19:25.837Z,69.40
2018-02-21T00:21:54.481Z,69.40
2018-02-21T00:24:22.863Z,69.50
2018-02-21T00:26:51.240Z,69.80
2018-02-21T00:29:19.638Z,69.80
2018-02-21T00:31:48.033Z,70.10
2018-02-21T00:34:16.432Z,70.10
2018-02-21T00:36:45.574Z,70.70
2018-02-21T00:39:14.151Z,69.90
2018-02-21T00:41:42.567Z,70.00
2018-02-21T00:44:10.938Z,70.00
2018-02-21T00:46:39.335Z,69.90
2018-02-21T00:49:07.718Z,69.30
2018-02-21T00:51:36.110Z,69.60
2018-02-21T00:54:05.251Z,70.30
2018-02-21T00:56:33.662Z,69.60
2018-02-21T00:59:02.800Z,70.20
2018-02-21T01:01:31.162Z,69.60
2018-02-21T01:04:00.313Z,70.40
2018-02-21T01:06:28.682Z,69.60
2018-02-21T01:08:57.079Z,69.60
2018-02-21T01:11:25.448Z,69.60
2018-02-21T01:13:54.006Z,69.80
2018-02-21T01:16:22.373Z,70.00
2018-02-21T01:18:50.748Z,70.20
2018-02-21T01:21:20.526Z,70.20
2018-02-21T01:23:49.674Z,70.00
2018-02-21T01:26:18.066Z,69.70
2018-02-21T01:28:46.442Z,69.60
2018-02-21T01:31:14.854Z,69.70
2018-02-21T01:33:43.226Z,69.80
2018-02-21T01:36:11.598Z,69.60
2018-02-21T01:38:40.006Z,70.00
2018-02-21T01:41:09.141Z,70.60
2018-02-21T01:43:37.541Z,70.00
2018-02-21T01:46:05.913Z,70.30
2018-02-21T01:48:34.486Z,70.00
2018-02-21T01:51:02.858Z,69.70
2018-02-21T01:53:31.224Z,70.00
2018-02-21T01:55:59.613Z,69.70
2018-02-21T01:58:27.989Z,70.10
2018-02-21T02:00:56.382Z,70.20
2018-02-21T02:03:24.743Z,70.00
2018-02-21T02:05:53.334Z,70.20
2018-02-21T02:08:21.695Z,70.40
2018-02-21T02:10:50.082Z,70.20
2018-02-21T02:13:18.481Z,70.10
2018-02-21T02:15:46.858Z,69.80
2018-02-21T02:18:15.245Z,69.90
2018-02-21T02:20:43.626Z,70.00
2018-02-21T02:23:12.190Z,70.10
2018-02-21T02:25:40.561Z,69.90
2018-02-21T02:28:08.937Z,70.10
2018-02-21T02:30:37.330Z,70.30
2018-02-21T02:33:05.694Z,70.10
2018-02-21T02:35:34.088Z,70.40
2018-02-21T02:38:02.496Z,70.70
2018-02-21T02:40:30.880Z,70.90
2018-02-21T02:42:59.249Z,70.80
2018-02-21T02:45:27.900Z,70.60
2018-02-21T02:47:56.277Z,70.60
2018-02-21T02:50:24.654Z,70.90
2018-02-21T02:52:53.050Z,71.10
2018-02-21T02:55:21.427Z,71.10
2018-02-21T02:57:49.823Z,71.30
2018-02-21T03:00:18.202Z,71.10
2018-02-21T03:02:46.630Z,71.00
2018-02-21T03:05:14.992Z,71.00
2018-02-21T03:07:44.127Z,72.40
2018-02-21T03:10:13.046Z,71.70
2018-02-21T03:12:41.428Z,72.00
2018-02-21T03:15:09.824Z,71.90
2018-02-21T03:17:38.958Z,72.80
2018-02-21T03:20:07.556Z,72.00
2018-02-21T03:22:35.941Z,72.10
2018-02-21T03:25:07.034Z,71.70
2018-02-21T03:27:35.656Z,71.50
2018-02-21T03:30:04.018Z,71.70
2018-02-21T03:32:32.472Z,72.30
2018-02-21T03:35:01.609Z,72.00
2018-02-21T03:37:30.192Z,71.40
2018-02-21T03:39:58.561Z,71.60
2018-02-21T03:42:26.934Z,71.40
2018-02-21T03:44:55.321Z,71.70
2018-02-21T03:47:23.689Z,71.40
2018-02-21T03:49:52.079Z,71.40
2018-02-21T03:52:20.455Z,71.70
2018-02-21T03:54:48.859Z,71.40
2018-02-21T03:57:17.232Z,71.30
2018-02-21T03:59:45.601Z,71.80
2018-02-21T04:02:14.094Z,72.20
2018-02-21T04:04:42.472Z,72.00
2018-02-21T04:07:10.874Z,71.80
2018-02-21T04:09:39.241Z,72.10
2018-02-21T04:12:07.633Z,72.60
2018-02-21T04:14:36.301Z,71.80
2018-02-21T04:17:04.688Z,72.20
2018-02-21T04:19:33.082Z,71.70
2018-02-21T04:22:01.457Z,72.00
2018-02-21T04:24:30.457Z,71.80
2018-02-21T04:26:58.813Z,71.80
2018-02-21T04:29:27.677Z,71.90
2018-02-21T04:31:56.049Z,71.90
2018-02-21T04:34:24.419Z,72.20
2018-02-21T04:36:53.016Z,72.00
2018-02-21T04:39:21.565Z,72.80
2018-02-21T04:41:50.729Z,72.40
2018-02-21T04:44:19.100Z,71.80
2018-02-21T04:46:48.165Z,71.90
2018-02-21T04:49:16.533Z,71.60
2018-02-21T04:51:44.902Z,71.60
2018-02-21T04:54:14.228Z,71.60
2018-02-21T05:00:04.294Z,71.70
2018-02-21T05:02:33.542Z,72.80
2018-02-21T05:05:01.934Z,71.30
2018-02-21T05:07:30.313Z,71.10
2018-02-21T05:09:58.974Z,71.70
2018-02-21T05:12:27.565Z,71.30
2018-02-21T05:14:55.945Z,71.10
2018-02-21T05:17:24.343Z,70.50
2018-02-21T05:19:52.836Z,70.40
2018-02-21T05:22:21.234Z,70.20
2018-02-21T05:24:50.366Z,70.30
2018-02-21T05:27:18.777Z,69.70
2018-02-21T05:29:47.156Z,69.40
2018-02-21T05:32:15.535Z,69.70
2018-02-21T05:34:43.940Z,70.00
2018-02-21T05:37:13.093Z,70.10
2018-02-21T05:39:41.503Z,69.50
2018-02-21T05:42:09.880Z,69.60
2018-02-21T05:44:38.427Z,69.50
2018-02-21T05:47:06.890Z,69.60
2018-02-21T05:49:35.269Z,69.80
2018-02-21T05:52:03.670Z,70.00
2018-02-21T05:54:32.146Z,69.60
2018-02-21T05:57:00.557Z,69.70
2018-02-21T05:59:28.934Z,69.90
2018-02-21T06:01:57.336Z,70.00
2018-02-21T06:04:26.507Z,71.10
2018-02-21T06:06:54.960Z,70.40
2018-02-21T06:09:23.372Z,70.00
2018-02-21T06:11:51.751Z,70.20
2018-02-21T06:14:20.155Z,70.30
2018-02-21T06:16:49.301Z,70.80
2018-02-21T06:19:17.726Z,70.20
2018-02-21T06:21:46.120Z,70.10
2018-02-21T06:24:14.513Z,70.90
2018-02-21T06:26:42.914Z,70.00
2018-02-21T06:29:11.292Z,70.20
2018-02-21T06:31:39.693Z,69.90
2018-02-21T06:34:08.077Z,69.90
2018-02-21T06:36:37.150Z,69.60
2018-02-21T06:39:05.530Z,69.70
2018-02-21T06:41:33.910Z,69.80
2018-02-21T06:44:02.314Z,70.00
2018-02-21T06:46:30.695Z,69.60
2018-02-21T06:48:59.093Z,69.40
2018-02-21T06:51:28.238Z,70.20
2018-02-21T06:53:56.659Z,69.60
2018-02-21T06:56:25.805Z,70.30
2018-02-21T06:58:54.195Z,69.60
2018-02-21T07:01:22.602Z,69.50
2018-02-21T07:03:50.979Z,68.90
2018-02-21T07:06:21.324Z,69.80
2018-02-21T07:08:51.589Z,69.60
2018-02-21T07:11:21.445Z,68.00
2018-02-21T07:13:49.842Z,68.10
2018-02-21T07:16:18.222Z,68.60
2018-02-21T07:18:46.620Z,68.60
2018-02-21T07:21:14.996Z,67.90
2018-02-21T07:23:43.395Z,67.90
2018-02-21T07:26:11.984Z,67.40
2018-02-21T07:28:40.465Z,67.40
2018-02-21T07:31:08.840Z,67.20
2018-02-21T07:33:37.241Z,67.00
2018-02-21T07:36:05.668Z,66.80
2018-02-21T07:38:34.792Z,66.80
2018-02-21T07:41:03.196Z,66.10
2018-02-21T07:43:31.669Z,65.60
2018-02-21T07:46:00.334Z,64.80
2018-02-21T07:48:28.702Z,64.80
2018-02-21T07:50:57.069Z,64.30
2018-02-21T07:53:25.472Z,63.40
2018-02-21T07:55:53.850Z,63.20
2018-02-21T07:58:22.239Z,62.90
2018-02-21T08:00:50.617Z,63.00
2018-02-21T08:03:19.025Z,62.50
2018-02-21T08:05:47.392Z,62.40
2018-02-21T08:08:15.763Z,61.80
2018-02-21T08:10:44.164Z,61.90
2018-02-21T08:13:13.302Z,62.20
2018-02-21T08:15:41.726Z,61.50
2018-02-21T08:18:10.110Z,61.50
2018-02-21T08:20:38.851Z,61.20
2018-02-21T08:23:07.213Z,60.90
2018-02-21T08:25:35.586Z,61.10
2018-02-21T08:28:03.974Z,60.80
2018-02-21T08:30:32.341Z,60.60
2018-02-21T08:33:00.743Z,60.30
2018-02-21T08:35:29.146Z,60.40
2018-02-21T08:37:57.705Z,60.10
2018-02-21T08:40:26.070Z,60.20
2018-02-21T08:42:54.437Z,60.20
2018-02-21T08:45:22.834Z,59.80
2018-02-21T08:47:51.211Z,60.10
2018-02-21T08:50:19.615Z,59.70
2018-02-21T08:52:47.988Z,59.20
2018-02-21T08:55:16.562Z,59.00
2018-02-21T08:57:44.935Z,58.60
2018-02-21T09:00:13.346Z,59.00
2018-02-21T09:02:41.768Z,58.90
2018-02-21T09:05:10.149Z,59.00
2018-02-21T09:07:38.542Z,58.30
2018-02-21T09:10:06.913Z,57.80
2018-02-21T09:12:35.523Z,58.00
2018-02-21T09:15:03.908Z,58.00
2018-02-21T09:17:32.279Z,58.30
2018-02-21T09:20:00.669Z,58.20
2018-02-21T09:22:29.035Z,58.60
2018-02-21T09:24:57.565Z,59.00
2018-02-21T09:27:26.715Z,59.50
2018-02-21T09:29:55.502Z,59.00
2018-02-21T09:32:23.878Z,58.70
2018-02-21T09:34:52.245Z,58.80
2018-02-21T09:37:20.641Z,57.70
2018-02-21T09:39:49.008Z,57.70
2018-02-21T09:42:17.394Z,58.00
2018-02-21T09:44:45.771Z,57.40
2018-02-21T09:47:14.353Z,57.50
2018-02-21T09:49:42.729Z,57.20
2018-02-21T09:52:11.108Z,57.20
2018-02-21T09:54:39.601Z,55.10
2018-02-21T09:57:07.969Z,52.20
2018-02-21T09:59:36.375Z,48.30
2018-02-21T10:02:04.759Z,43.40
2018-02-21T10:04:33.184Z,39.80
2018-02-21T10:07:01.562Z,37.10
2018-02-21T10:09:29.959Z,35.70
2018-02-21T10:11:58.372Z,34.10
2018-02-21T10:14:26.758Z,33.90
2018-02-21T10:16:55.698Z,33.00
2018-02-21T10:19:24.075Z,31.40
2018-02-21T10:21:52.875Z,30.20
2018-02-21T10:24:21.265Z,29.30
2018-02-21T10:26:49.671Z,29.40
2018-02-21T10:29:18.066Z,29.20
2018-02-21T10:31:47.231Z,29.80
2018-02-21T10:34:15.652Z,29.00
2018-02-21T10:36:44.025Z,28.50
2018-02-21T10:39:13.568Z,28.20
2018-02-21T10:41:42.000Z,27.80
2018-02-21T10:44:11.153Z,28.30
2018-02-21T10:46:39.551Z,27.80
2018-02-21T10:49:07.926Z,26.50
2018-02-21T10:51:36.338Z,27.30
2018-02-21T10:54:05.486Z,26.60
2018-02-21T10:56:34.056Z,26.10
2018-02-21T10:59:02.436Z,24.90
2018-02-21T11:01:30.828Z,26.10
2018-02-21T11:03:59.242Z,26.60
2018-02-21T11:06:27.614Z,25.30
2018-02-21T11:08:56.010Z,24.60
2018-02-21T11:11:25.155Z,23.40
2018-02-21T11:13:53.582Z,22.80
2018-02-21T11:16:21.967Z,23.30
2018-02-21T11:18:51.114Z,19.40
2018-02-21T11:21:19.525Z,19.40
2018-02-21T11:23:47.910Z,20.00
2018-02-21T11:26:17.086Z,19.20
2018-02-21T11:28:45.461Z,19.20
2018-02-21T11:31:13.858Z,20.00
2018-02-21T11:33:42.235Z,20.10
2018-02-21T11:36:10.614Z,19.50
2018-02-21T11:38:39.029Z,18.90
2018-02-21T11:41:07.405Z,18.40
2018-02-21T11:43:35.807Z,17.70
2018-02-21T11:46:04.190Z,17.80
2018-02-21T11:48:32.982Z,17.50
2018-02-21T11:51:01.359Z,18.00
2018-02-21T11:53:29.738Z,17.20
2018-02-21T11:55:58.144Z,17.50
2018-02-21T11:58:26.526Z,16.70
2018-02-21T12:00:54.930Z,17.10
2018-02-21T12:03:24.079Z,17.40
2018-02-21T12:05:52.509Z,17.30
2018-02-21T12:08:21.652Z,17.40
2018-02-21T12:10:50.028Z,17.30
2018-02-21T12:13:18.438Z,16.80
2018-02-21T12:15:46.811Z,16.70
2018-02-21T12:18:15.229Z,16.70
2018-02-21T12:20:43.610Z,16.70
2018-02-21T12:23:12.033Z,16.60
2018-02-21T12:25:40.405Z,16.30
2018-02-21T12:28:08.789Z,16.30
2018-02-21T12:30:37.190Z,16.10
2018-02-21T12:33:05.570Z,15.30
2018-02-21T12:35:33.969Z,15.60
2018-02-21T12:38:03.116Z,17.80
2018-02-21T12:40:37.155Z,17.80
2018-02-21T12:43:05.506Z,18.70
2018-02-21T12:45:34.266Z,18.80
2018-02-21T12:48:02.637Z,19.90
2018-02-21T12:50:31.022Z,20.70
2018-02-21T12:52:59.433Z,22.00
2018-02-21T12:55:27.865Z,22.20
2018-02-21T12:57:56.243Z,22.00
2018-02-21T13:00:24.630Z,22.50
2018-02-21T13:02:53.041Z,22.30
2018-02-21T13:05:21.415Z,22.00
2018-02-21T13:07:49.853Z,22.00
2018-02-21T13:10:19.016Z,23.00
2018-02-21T13:12:47.400Z,23.00
2018-02-21T13:15:15.803Z,23.00
2018-02-21T13:17:44.196Z,23.10
2018-02-21T13:20:12.642Z,23.10
2018-02-21T13:22:41.795Z,24.10
2018-02-21T13:25:10.197Z,23.80
2018-02-21T13:27:38.614Z,24.00
2018-02-21T13:30:07.861Z,24.30
2018-02-21T13:32:36.269Z,24.20
2018-02-21T13:35:05.462Z,22.80
2018-02-21T13:37:33.876Z,22.70
2018-02-21T13:40:03.021Z,22.70
2018-02-21T13:42:31.412Z,22.70
2018-02-21T13:45:00.217Z,23.20
2018-02-21T13:47:28.594Z,24.40
2018-02-21T13:49:57.001Z,25.70
2018-02-21T13:52:25.418Z,26.70
2018-02-21T13:54:53.988Z,27.60
2018-02-21T13:57:22.381Z,28.00
2018-02-21T13:59:50.936Z,28.30
2018-02-21T14:02:19.345Z,28.10
2018-02-21T14:04:47.727Z,28.00
2018-02-21T14:07:16.131Z,27.80
2018-02-21T14:09:44.530Z,27.70
2018-02-21T14:12:13.277Z,27.80
2018-02-21T14:14:41.687Z,27.30
2018-02-21T14:17:10.841Z,28.60
2018-02-21T14:19:39.245Z,28.50
2018-02-21T14:22:07.625Z,29.20
2018-02-21T14:24:36.030Z,29.70
2018-02-21T14:27:05.205Z,30.10
2018-02-21T14:29:33.748Z,30.10
2018-02-21T14:32:02.234Z,30.20
2018-02-21T14:34:30.645Z,30.10
2018-02-21T14:36:59.130Z,29.80
2018-02-21T14:39:28.277Z,30.40
2018-02-21T14:41:56.665Z,30.40
2018-02-21T14:44:25.135Z,31.40
2018-02-21T14:46:53.740Z,32.50
2018-02-21T14:49:22.125Z,33.70
2018-02-21T14:51:50.495Z,35.80
2018-02-21T14:54:19.766Z,36.70
2018-02-21T14:56:48.139Z,37.30
2018-02-21T14:59:16.563Z,37.90
2018-02-21T15:01:45.244Z,38.80
2018-02-21T15:04:13.915Z,39.50
2018-02-21T15:06:42.399Z,40.60
2018-02-21T15:09:10.776Z,41.00
2018-02-21T15:11:39.259Z,41.40
2018-02-21T15:14:07.882Z,42.10
2018-02-21T15:16:36.287Z,42.00
2018-02-21T15:19:04.670Z,42.20
2018-02-21T15:21:33.277Z,42.70
2018-02-21T15:24:01.859Z,42.80
2018-02-21T15:26:30.554Z,43.10
2018-02-21T15:28:59.094Z,43.80
2018-02-21T15:31:28.373Z,49.70
2018-02-21T15:33:56.966Z,55.30
2018-02-21T15:36:26.147Z,64.00
2018-02-21T15:38:54.825Z,67.40
2018-02-21T15:41:23.252Z,69.10
2018-02-21T15:43:52.358Z,63.10
2018-02-21T15:46:21.083Z,59.70
2018-02-21T15:48:50.234Z,63.60
2018-02-21T15:51:18.739Z,73.50
2018-02-21T15:53:47.270Z,72.60
2018-02-21T15:56:16.467Z,56.10
2018-02-21T15:58:45.670Z,55.10
2018-02-21T16:01:14.838Z,57.40
2018-02-21T16:03:43.230Z,61.40
2018-02-21T16:06:11.775Z,62.20
2018-02-21T16:08:40.209Z,71.60
2018-02-21T16:11:09.350Z,59.40
2018-02-21T16:13:37.782Z,50.50
2018-02-21T16:16:07.030Z,51.70
2018-02-21T16:18:35.628Z,51.40
2018-02-21T16:21:04.160Z,51.40
2018-02-21T16:23:33.913Z,51.60
2018-02-21T16:26:03.179Z,52.40
2018-02-21T16:28:31.594Z,52.20
2018-02-21T16:31:00.532Z,52.20
2018-02-21T16:33:29.742Z,53.00
2018-02-21T16:35:58.254Z,52.80
2018-02-21T16:38:26.652Z,53.00
2018-02-21T16:40:55.030Z,53.40
2018-02-21T16:43:23.456Z,53.80
2018-02-21T16:45:51.973Z,53.60
2018-02-21T16:48:21.124Z,53.70
2018-02-21T16:50:49.648Z,54.10
2018-02-21T16:53:18.714Z,55.30
2018-02-21T16:55:48.968Z,54.50
2018-02-21T16:58:17.698Z,55.50
2018-02-21T17:00:48.638Z,55.70
2018-02-21T17:03:18.609Z,54.40
2018-02-21T17:05:48.973Z,55.30
2018-02-21T17:08:17.835Z,55.30
2018-02-21T17:10:47.943Z,55.30
2018-02-21T17:13:17.549Z,55.50
2018-02-21T17:15:47.305Z,55.50
2018-02-21T17:18:16.218Z,55.50
2018-02-21T17:20:46.713Z,55.60
2018-02-21T17:23:15.260Z,55.60
2018-02-21T17:25:43.690Z,55.90
2018-02-21T17:28:13.148Z,55.80
2018-02-21T17:30:42.293Z,55.80
2018-02-21T17:33:11.128Z,55.80
2018-02-21T17:35:40.350Z,56.10
2018-02-21T17:38:09.011Z,56.00
2018-02-21T17:43:45.737Z,55.80
2018-02-21T17:46:14.226Z,55.80
2018-02-21T17:48:43.586Z,56.30
2018-02-21T17:51:11.962Z,56.20
2018-02-21T17:53:41.172Z,56.30
2018-02-21T17:56:11.142Z,56.70
2018-02-21T17:58:39.660Z,56.70
2018-02-21T18:01:08.086Z,56.70
2018-02-21T18:03:37.228Z,57.00
2018-02-21T18:06:05.769Z,56.90
2018-02-21T18:08:34.911Z,57.50
2018-02-21T18:11:03.281Z,57.50
2018-02-21T18:13:31.666Z,57.20
2018-02-21T18:16:00.026Z,56.80
2018-02-21T18:18:28.426Z,56.40
2018-02-21T18:20:56.794Z,56.60
2018-02-21T18:23:25.402Z,57.00
2018-02-21T18:25:53.817Z,57.50
2018-02-21T18:28:23.442Z,56.00
2018-02-21T18:30:52.023Z,56.00
2018-02-21T18:33:20.393Z,56.00
2018-02-21T18:35:49.556Z,56.50
2018-02-21T18:38:18.206Z,56.40
2018-02-21T18:40:46.800Z,56.50
2018-02-21T18:43:15.197Z,56.70
2018-02-21T18:45:43.583Z,56.70
2018-02-21T18:48:11.978Z,56.90
2018-02-21T18:50:40.386Z,56.70
2018-02-21T18:53:08.782Z,56.90
2018-02-21T18:55:37.278Z,56.60
2018-02-21T18:58:05.961Z,56.50
2018-02-21T19:00:34.450Z,56.60
2018-02-21T19:03:03.645Z,57.10
2018-02-21T19:05:32.088Z,57.10
2018-02-21T19:08:01.214Z,57.20
2018-02-21T19:10:29.607Z,57.10
2018-02-21T19:12:57.997Z,56.90
2018-02-21T19:15:26.892Z,56.70
2018-02-21T19:17:56.081Z,56.90
2018-02-21T19:20:24.571Z,56.90
2018-02-21T19:22:53.078Z,57.20
2018-02-21T19:25:21.485Z,57.00
2018-02-21T19:27:49.871Z,57.00
2018-02-21T19:30:18.327Z,56.80
2018-02-21T19:32:47.152Z,57.00
2018-02-21T19:35:15.567Z,57.20
2018-02-21T19:37:44.117Z,57.20
2018-02-21T19:40:13.106Z,57.30
2018-02-21T19:42:41.676Z,56.90
2018-02-21T19:45:10.086Z,57.00
2018-02-21T19:47:38.669Z,56.50
2018-02-21T19:50:07.820Z,56.50
2018-02-21T19:52:36.265Z,56.50
2018-02-21T19:55:06.135Z,56.40
2018-02-21T19:57:35.100Z,56.40
2018-02-21T20:00:03.616Z,56.40
2018-02-21T20:02:32.600Z,56.70
2018-02-21T20:05:01.639Z,56.80
2018-02-21T20:07:31.430Z,57.30
2018-02-21T20:10:00.869Z,57.30
2018-02-21T20:12:29.652Z,57.30
2018-02-21T20:14:58.633Z,57.10
2018-02-21T20:17:29.315Z,57.30
2018-02-21T20:20:03.646Z,57.10
2018-02-21T20:22:33.855Z,57.40
2018-02-21T20:25:02.870Z,57.60
2018-02-21T20:27:32.179Z,57.70
2018-02-21T20:30:01.578Z,58.40
2018-02-21T20:32:30.257Z,58.20
2018-02-21T20:34:59.804Z,57.90
2018-02-21T20:37:28.859Z,57.80
2018-02-21T20:39:58.769Z,58.00
2018-02-21T20:42:28.112Z,57.90
2018-02-21T20:44:57.395Z,58.10
2018-02-21T20:47:26.211Z,58.00
2018-02-21T20:49:55.326Z,57.90
2018-02-21T20:52:24.353Z,57.80
2018-02-21T20:54:53.569Z,57.90
2018-02-21T20:57:22.379Z,57.90
2018-02-21T20:59:51.580Z,57.90
2018-02-21T21:02:21.042Z,58.10
2018-02-21T21:04:49.921Z,58.10
2018-02-21T21:07:19.442Z,58.20
2018-02-21T21:09:47.862Z,58.50
2018-02-21T21:12:16.279Z,58.70
2018-02-21T21:14:44.649Z,58.70
2018-02-21T21:17:13.246Z,59.00
2018-02-21T21:19:41.778Z,59.20
2018-02-21T21:22:11.398Z,59.00
2018-02-21T21:24:39.938Z,59.00
2018-02-21T21:27:08.373Z,59.00
2018-02-21T21:29:36.852Z,59.20
2018-02-21T21:32:05.315Z,59.20
2018-02-21T21:34:33.754Z,59.50
2018-02-21T21:37:03.469Z,59.30
2018-02-21T21:39:33.047Z,59.50
2018-02-21T21:42:02.035Z,59.50
2018-02-21T21:44:31.103Z,59.60
2018-02-21T21:47:00.353Z,59.60
2018-02-21T21:49:32.868Z,59.60
2018-02-21T21:51:58.897Z,59.80
2018-02-21T21:54:28.342Z,59.60
2018-02-21T21:56:58.534Z,59.50
2018-02-21T21:59:27.889Z,59.50
2018-02-21T22:01:56.607Z,59.50
2018-02-21T22:04:26.086Z,59.50
2018-02-21T22:06:56.427Z,59.70
2018-02-21T22:09:26.057Z,59.70
2018-02-21T22:11:55.965Z,59.80
2018-02-21T22:14:26.283Z,60.00
2018-02-21T22:16:57.004Z,60.20
2018-02-21T22:19:26.938Z,60.30
2018-02-21T22:21:56.302Z,60.20
2018-02-21T22:24:26.145Z,60.20
2018-02-21T22:26:56.587Z,60.20
2018-02-21T22:29:26.381Z,60.10
2018-02-21T22:31:57.419Z,60.10
2018-02-21T22:34:27.839Z,60.10
2018-02-21T22:36:58.222Z,60.20
2018-02-21T22:39:27.878Z,60.00
2018-02-21T22:41:58.500Z,60.20
2018-02-21T22:44:28.528Z,60.20
2018-02-21T22:46:58.436Z,60.00
2018-02-21T22:49:28.541Z,60.10
2018-02-21T22:51:58.766Z,60.00
2018-02-21T22:54:28.859Z,60.20
2018-02-21T22:56:58.318Z,60.00
2018-02-21T22:59:27.917Z,60.10
2018-02-21T23:01:57.891Z,59.60
2018-02-21T23:04:28.011Z,59.70
2018-02-21T23:06:57.917Z,59.70
2018-02-21T23:09:28.563Z,59.90
2018-02-21T23:11:59.164Z,59.70
2018-02-21T23:14:28.512Z,59.60
2018-02-21T23:16:57.138Z,59.70
2018-02-21T23:19:25.522Z,59.50
2018-02-21T23:21:55.113Z,59.60
2018-02-21T23:24:25.326Z,59.50
2018-02-21T23:26:55.125Z,59.40
2018-02-21T23:29:25.011Z,60.00
2018-02-21T23:31:55.251Z,60.00
2018-02-21T23:34:25.613Z,59.80
2018-02-21T23:36:55.673Z,59.80
2018-02-21T23:39:25.758Z,59.90
2018-02-21T23:41:55.180Z,59.80
2018-02-21T23:44:24.672Z,59.80
2018-02-21T23:46:53.596Z,59.80
2018-02-21T23:49:22.098Z,59.80
2018-02-21T23:51:50.482Z,60.00
2018-02-21T23:54:19.649Z,59.80
2018-02-21T23:56:48.030Z,59.80
2018-02-21T23:59:17.394Z,59.60
